Time;durP1;ratioP1;P1;durP2;ratioP2;P2;SDS_P1;SDS_P2;PMS_P1;PMS_P2;Temp;Humidity;BMP_temperature;BMP_pressure;BME280_temperature;BME280_humidity;BME280_pressure;Samples;Min_cycle;Max_cycle;Signal;HPM_P1;HPM_P2
2021/05/13 00:00:49;;;;;;;;;;;;;;;11.55;76.80;96718.84;1639259;86;20564;-67
2021/05/13 00:03:15;;;;;;;;;;;;;;;11.57;76.66;96719.36;1638910;87;21752;-66
2021/05/13 00:05:43;;;;;;;;;;;;;;;11.60;76.60;96714.31;1638707;86;20542;-66
2021/05/13 00:08:09;;;;;;;;;;;;;;;11.60;77.39;96713.00;1638585;86;20580;-66
2021/05/13 00:10:36;;;;;;;;;;;;;;;11.58;78.22;96713.03;1638634;86;20566;-67
2021/05/13 00:13:05;;;;;;;;;;;;;;;11.58;78.33;96715.67;1638740;86;20415;-66
2021/05/13 00:15:34;;;;;;;;;;;;;;;11.60;78.21;96713.00;1638875;87;21639;-67
2021/05/13 00:18:00;;;;;;;;;;;;;;;11.63;77.74;96713.77;1638631;86;20562;-66
2021/05/13 00:20:29;;;;;;;;;;;;;;;11.65;77.81;96708.23;1638571;86;20557;-66
2021/05/13 00:22:56;;;;;;;;;;;;;;;11.68;77.97;96712.93;1638948;87;20533;-66
2021/05/13 00:25:23;;;;;;;;;;;;;;;11.66;78.39;96715.08;1638874;86;20564;-67
2021/05/13 00:27:50;;;;;;;;;;;;;;;11.65;78.76;96716.92;1638946;87;21741;-66
2021/05/13 00:30:17;;;;;;;;;;;;;;;11.63;79.17;96714.30;1638490;86;20560;-67
2021/05/13 00:32:44;;;;;;;;;;;;;;;11.61;79.53;96713.25;1638853;86;20221;-66
2021/05/13 00:35:13;;;;;;;;;;;;;;;11.58;80.19;96709.88;1638719;87;20589;-66
2021/05/13 00:37:41;;;;;;;;;;;;;;;11.55;80.34;96705.16;1638540;86;20505;-66
2021/05/13 00:40:09;;;;;;;;;;;;;;;11.56;81.25;96701.99;1638990;87;21670;-66
2021/05/13 00:42:36;;;;;;;;;;;;;;;11.58;81.85;96703.83;1638566;86;20229;-66
2021/05/13 00:45:04;;;;;;;;;;;;;;;11.60;81.88;96697.20;1638715;86;20589;-66
2021/05/13 00:47:34;;;;;;;;;;;;;;;11.62;81.82;96700.88;1638587;86;20577;-67
2021/05/13 00:49:59;;;;;;;;;;;;;;;11.63;81.04;96692.72;1638552;86;20317;-66
2021/05/13 00:52:26;;;;;;;;;;;;;;;11.62;80.78;96697.72;1638508;86;21955;-66
2021/05/13 00:54:53;;;;;;;;;;;;;;;11.61;81.52;96688.78;1640764;86;20524;-66
2021/05/13 00:57:20;;;;;;;;;;;;;;;11.59;81.87;96685.14;1642931;86;20553;-66
2021/05/13 00:59:53;;;;;;;;;;;;;;;11.58;80.91;96682.77;1642797;86;20588;-66
2021/05/13 01:02:18;;;;;;;;;;;;;;;11.58;80.65;96684.87;1667898;80;20431;-66
2021/05/13 01:04:44;;;;;;;;;;;;;;;11.56;80.09;96680.94;1749853;81;21651;-66
2021/05/13 01:07:11;;;;;;;;;;;;;;;11.52;79.77;96678.63;1750654;80;20544;-67
2021/05/13 01:09:37;;;;;;;;;;;;;;;11.45;79.60;96671.58;1757160;81;20234;-66
2021/05/13 01:12:26;;;;;;;;;;;;;;;11.39;79.65;96666.86;1757095;79;20242;-65
2021/05/13 01:19:51;;;;;;;;;;;;;;;11.33;79.69;96667.97;1757139;81;20562;-66
2021/05/13 01:22:19;;;;;;;;;;;;;;;11.31;79.86;96669.55;1757218;81;20570;-65
2021/05/13 01:24:47;;;;;;;;;;;;;;;11.29;80.45;96666.97;1757423;81;20550;-65
2021/05/13 01:27:15;;;;;;;;;;;;;;;11.25;81.61;96664.61;1757322;81;20573;-65
2021/05/13 01:29:47;;;;;;;;;;;;;;;11.20;82.70;96660.19;1757269;79;21610;-66
2021/05/13 01:32:14;;;;;;;;;;;;;;;11.15;83.61;96657.61;1757220;81;20550;-67
2021/05/13 01:34:42;;;;;;;;;;;;;;;11.10;84.01;96654.20;1757358;79;20227;-67
2021/05/13 01:37:08;;;;;;;;;;;;;;;11.08;84.19;96645.83;1757676;81;20602;-67
2021/05/13 01:39:35;;;;;;;;;;;;;;;11.06;84.15;96654.52;1757419;81;20566;-67
2021/05/13 01:42:02;;;;;;;;;;;;;;;11.03;84.37;96653.20;1757188;81;21563;-67
2021/05/13 01:44:29;;;;;;;;;;;;;;;11.01;83.83;96649.30;1757098;81;20231;-67
2021/05/13 01:46:55;;;;;;;;;;;;;;;11.00;83.61;96650.35;1757143;79;20581;-67
2021/05/13 01:49:23;;;;;;;;;;;;;;;10.99;83.44;96648.25;1757567;81;20227;-67
2021/05/13 01:51:50;;;;;;;;;;;;;;;10.99;83.69;96644.83;1757563;81;20309;-67
2021/05/13 01:54:17;;;;;;;;;;;;;;;10.98;84.10;96640.63;1757334;81;20606;-67
2021/05/13 01:56:43;;;;;;;;;;;;;;;10.99;84.18;96634.31;1757208;79;20226;-67
2021/05/13 01:59:10;;;;;;;;;;;;;;;11.02;84.00;96632.47;1757584;79;20554;-66
2021/05/13 02:01:37;;;;;;;;;;;;;;;11.05;84.25;96627.43;1757034;79;20573;-67
2021/05/13 02:04:05;;;;;;;;;;;;;;;11.08;84.36;96624.27;1757043;81;20570;-67
2021/05/13 02:06:32;;;;;;;;;;;;;;;11.12;84.52;96616.59;1757025;81;21555;-67
2021/05/13 02:08:59;;;;;;;;;;;;;;;11.14;84.49;96612.64;1757054;81;20617;-67
2021/05/13 02:11:26;;;;;;;;;;;;;;;11.14;84.63;96610.55;1757326;81;20577;-67
2021/05/13 02:13:54;;;;;;;;;;;;;;;11.13;84.76;96608.97;1757055;79;20537;-66
2021/05/13 02:16:23;;;;;;;;;;;;;;;11.11;85.00;96611.08;1757181;81;20558;-67
2021/05/13 02:18:50;;;;;;;;;;;;;;;11.09;85.33;96606.12;1757571;79;21681;-66
2021/05/13 02:21:17;;;;;;;;;;;;;;;11.11;85.64;96612.39;1757276;81;20546;-67
2021/05/13 02:23:43;;;;;;;;;;;;;;;11.13;86.14;96609.75;1757349;81;20234;-66
2021/05/13 02:26:10;;;;;;;;;;;;;;;11.15;86.49;96597.66;1757039;81;20550;-66
2021/05/13 02:28:37;;;;;;;;;;;;;;;11.13;86.93;96594.50;1757431;81;20561;-67
2021/05/13 02:31:03;;;;;;;;;;;;;;;11.10;87.24;96602.41;1757079;81;21707;-66
2021/05/13 02:33:30;;;;;;;;;;;;;;;11.04;87.92;96597.47;1757051;79;20515;-66
2021/05/13 02:35:57;;;;;;;;;;;;;;;10.99;88.48;96599.61;1757130;81;20601;-66
2021/05/13 02:38:24;;;;;;;;;;;;;;;10.98;88.98;96595.94;1757369;79;20238;-66
2021/05/13 02:40:50;;;;;;;;;;;;;;;11.00;89.33;96592.52;1757294;81;20565;-66
2021/05/13 02:43:17;;;;;;;;;;;;;;;11.01;89.47;96596.72;1757247;81;21699;-66
2021/05/13 02:45:44;;;;;;;;;;;;;;;11.02;89.71;96594.34;1756985;81;20226;-66
2021/05/13 02:48:10;;;;;;;;;;;;;;;11.01;90.30;96593.56;1757075;81;20214;-67
2021/05/13 02:50:37;;;;;;;;;;;;;;;10.99;90.52;96586.47;1757181;79;20542;-66
2021/05/13 02:53:04;;;;;;;;;;;;;;;10.92;91.10;96588.10;1757092;81;20550;-66
2021/05/13 02:55:31;;;;;;;;;;;;;;;10.86;91.73;96587.10;1757125;79;21735;-67
2021/05/13 02:58:00;;;;;;;;;;;;;;;10.84;92.37;96586.58;1757037;81;20239;-66
2021/05/13 03:00:29;;;;;;;;;;;;;;;10.82;92.60;96593.95;1756996;81;20547;-66
2021/05/13 03:02:55;;;;;;;;;;;;;;;10.82;92.73;96585.54;1757132;81;20247;-66
2021/05/13 03:05:28;;;;;;;;;;;;;;;10.87;92.96;96586.05;1761939;81;20292;-66
2021/05/13 03:07:57;;;;;;;;;;;;;;;10.90;93.18;96588.11;1762846;81;21666;-66
2021/05/13 03:10:44;;;;;;;;;;;;;;;10.92;92.86;96585.47;1754562;81;20563;-66
2021/05/13 03:13:12;;;;;;;;;;;;;;;10.95;92.86;96588.06;1752163;81;20581;-66
2021/05/13 03:15:39;;;;;;;;;;;;;;;10.97;92.46;96584.64;1752204;81;20590;-67
2021/05/13 03:18:06;;;;;;;;;;;;;;;10.95;92.89;96583.59;1752232;80;20441;-66
2021/05/13 03:20:48;;;;;;;;;;;;;;;10.93;93.13;96581.79;1752317;81;21674;-66
2021/05/13 03:23:02;;;;;;;;;;;;;;;10.95;93.34;96577.55;1749170;80;20539;-66
2021/05/13 03:25:32;;;;;;;;;;;;;;;10.95;93.83;96574.92;1752210;81;20653;-67
2021/05/13 03:28:08;;;;;;;;;;;;;;;10.95;93.78;96569.13;1752077;80;20531;-66
2021/05/13 03:30:41;;;;;;;;;;;;;;;11.00;94.02;96570.17;1752201;81;20574;-66
2021/05/13 03:33:08;;;;;;;;;;;;;;;11.03;94.16;96568.28;1752194;81;21675;-67
2021/05/13 03:35:34;;;;;;;;;;;;;;;11.04;94.22;96568.02;1752451;81;20231;-66
2021/05/13 03:38:02;;;;;;;;;;;;;;;11.08;94.17;96568.27;1752095;81;20578;-66
2021/05/13 03:40:30;;;;;;;;;;;;;;;11.10;94.17;96571.37;1752312;81;20231;-66
2021/05/13 03:42:58;;;;;;;;;;;;;;;11.11;94.17;96567.70;1752317;80;20566;-66
2021/05/13 03:45:25;;;;;;;;;;;;;;;11.17;94.04;96571.84;1752226;81;21678;-67
2021/05/13 03:47:51;;;;;;;;;;;;;;;11.23;94.23;96561.56;1752339;81;20578;-66
2021/05/13 03:50:19;;;;;;;;;;;;;;;11.28;94.03;96560.19;1752077;80;20576;-66
2021/05/13 05:02:31;;;;;;;;;;;;;;;12.62;88.23;96506.39;1726742;81;20245;-65
2021/05/13 05:04:57;;;;;;;;;;;;;;;12.68;87.66;96499.99;1738323;81;20327;-64
2021/05/13 05:07:24;;;;;;;;;;;;;;;12.67;86.96;96494.47;1727988;81;20435;-66
2021/05/13 05:09:51;;;;;;;;;;;;;;;12.68;87.28;96490.77;1746913;81;22083;-64
2021/05/13 05:12:17;;;;;;;;;;;;;;;12.71;87.06;96487.53;1734147;81;20192;-64
2021/05/13 05:14:46;;;;;;;;;;;;;;;12.75;86.78;96482.70;1735385;81;20536;-66
2021/05/13 05:17:13;;;;;;;;;;;;;;;12.83;86.57;96487.85;1740762;81;20595;-65
2021/05/13 05:19:40;;;;;;;;;;;;;;;12.87;85.96;96480.41;1734580;81;20681;-66
2021/05/13 05:22:07;;;;;;;;;;;;;;;12.90;86.00;96486.94;1745428;81;21662;-64
2021/05/13 05:24:34;;;;;;;;;;;;;;;12.92;86.53;96486.13;1746024;81;20601;-62
2021/05/13 05:27:01;;;;;;;;;;;;;;;12.99;86.19;96489.70;1739181;79;20326;-68
2021/05/13 05:29:28;;;;;;;;;;;;;;;13.06;85.70;96492.20;1729241;81;20475;-68
2021/05/13 05:31:55;;;;;;;;;;;;;;;13.16;85.21;96496.56;1738961;81;20367;-69
2021/05/13 05:34:21;;;;;;;;;;;;;;;13.25;85.06;96488.98;1743489;79;21768;-66
2021/05/13 05:36:48;;;;;;;;;;;;;;;13.38;84.54;96491.94;1736970;79;20235;-71
2021/05/13 05:39:15;;;;;;;;;;;;;;;13.47;84.02;96484.91;1733381;80;20311;-66
2021/05/13 05:41:45;;;;;;;;;;;;;;;13.63;84.06;96484.84;1735507;79;20642;-64
2021/05/13 05:44:13;;;;;;;;;;;;;;;13.78;83.84;96484.53;1736816;79;20421;-66
2021/05/13 05:46:40;;;;;;;;;;;;;;;13.91;82.59;96489.00;1737715;79;21426;-67
2021/05/13 05:49:07;;;;;;;;;;;;;;;14.00;82.13;96490.41;1742002;79;20653;-68
2021/05/13 05:51:34;;;;;;;;;;;;;;;14.04;81.53;96493.50;1740019;81;20631;-68
2021/05/13 05:54:01;;;;;;;;;;;;;;;14.13;81.67;96494.87;1734869;81;20865;-67
2021/05/13 05:56:28;;;;;;;;;;;;;;;14.21;81.38;96490.75;1740014;81;20598;-66
2021/05/13 05:58:55;;;;;;;;;;;;;;;14.32;80.14;96486.81;1737527;81;21485;-71
2021/05/13 06:01:22;;;;;;;;;;;;;;;14.36;79.54;96491.20;1736216;81;20355;-68
2021/05/13 06:03:49;;;;;;;;;;;;;;;14.44;79.27;96491.05;1729694;81;20210;-69
2021/05/13 06:06:15;;;;;;;;;;;;;;;14.52;79.08;96485.59;1737231;81;20615;-69
2021/05/13 06:08:42;;;;;;;;;;;;;;;14.60;79.00;96481.69;1736578;81;20609;-66
2021/05/13 06:11:09;;;;;;;;;;;;;;;14.67;78.82;96483.38;1736273;81;21616;-70
2021/05/13 06:13:35;;;;;;;;;;;;;;;14.80;79.16;96487.80;1735870;81;20492;-68
2021/05/13 06:16:02;;;;;;;;;;;;;;;14.98;78.47;96484.73;1741492;79;20562;-70
2021/05/13 06:18:29;;;;;;;;;;;;;;;15.12;77.22;96485.97;1737181;81;20581;-67
2021/05/13 06:20:56;;;;;;;;;;;;;;;15.20;76.64;96483.34;1745517;79;20558;-67
2021/05/13 06:23:22;;;;;;;;;;;;;;;15.30;76.61;96485.48;1735733;81;21257;-64
2021/05/13 06:25:49;;;;;;;;;;;;;;;15.45;76.60;96481.89;1739702;79;20768;-66
2021/05/13 06:28:16;;;;;;;;;;;;;;;15.65;76.16;96488.52;1745934;79;20483;-68
2021/05/13 06:30:45;;;;;;;;;;;;;;;15.85;75.41;96483.19;1743269;81;20769;-67
2021/05/13 06:33:18;;;;;;;;;;;;;;;15.95;74.00;96485.55;1740399;79;20608;-68
2021/05/13 06:35:43;;;;;;;;;;;;;;;16.00;73.73;96482.20;1705736;81;20879;-73
2021/05/13 06:38:09;;;;;;;;;;;;;;;16.10;73.98;96484.33;1738763;79;21218;-71
2021/05/13 06:40:36;;;;;;;;;;;;;;;16.17;73.85;96484.64;1739644;79;20625;-66
2021/05/13 06:43:03;;;;;;;;;;;;;;;16.21;73.91;96486.36;1739743;79;20617;-70
2021/05/13 06:45:31;;;;;;;;;;;;;;;16.23;72.58;96471.47;1740001;79;20376;-66
2021/05/13 06:47:57;;;;;;;;;;;;;;;16.19;72.34;96472.66;1735135;81;22412;-68
2021/05/13 06:50:24;;;;;;;;;;;;;;;16.19;71.99;96473.20;1737251;81;20746;-67
2021/05/13 06:52:51;;;;;;;;;;;;;;;16.21;72.29;96478.97;1740378;79;20537;-65
2021/05/13 06:55:18;;;;;;;;;;;;;;;16.25;72.01;96474.05;1736888;81;20781;-70
2021/05/13 06:57:44;;;;;;;;;;;;;;;16.34;72.37;96476.71;1737025;81;20580;-70
2021/05/13 07:00:12;;;;;;;;;;;;;;;16.46;72.94;96480.83;1738293;79;21617;-67
2021/05/13 07:02:39;;;;;;;;;;;;;;;16.60;72.28;96466.89;1739603;79;21287;-67
2021/05/13 07:05:06;;;;;;;;;;;;;;;16.70;71.35;96468.44;1724351;80;20271;-67
2021/05/13 07:07:35;;;;;;;;;;;;;;;16.80;70.39;96464.12;1727586;80;20246;-67
2021/05/13 07:10:02;;;;;;;;;;;;;;;16.83;70.36;96467.48;1728302;80;20526;-66
2021/05/13 07:12:39;;;;;;;;;;;;;;;16.91;70.71;96461.92;1730397;80;22081;-68
2021/05/13 07:15:10;;;;;;;;;;;;;;;17.01;70.27;96466.88;1728716;80;20572;-68
2021/05/13 07:17:37;;;;;;;;;;;;;;;17.07;70.59;96464.30;1728584;80;20302;-65
2021/05/13 07:20:05;;;;;;;;;;;;;;;17.09;70.54;96468.72;1730714;80;20435;-65
2021/05/13 07:22:32;;;;;;;;;;;;;;;17.12;69.74;96467.56;1724537;80;20365;-73
2021/05/13 07:24:59;;;;;;;;;;;;;;;17.14;69.01;96462.69;1730407;80;21711;-70
2021/05/13 07:27:26;;;;;;;;;;;;;;;17.16;68.46;96474.33;1732287;80;20599;-68
2021/05/13 07:29:52;;;;;;;;;;;;;;;17.14;68.17;96465.34;1732809;80;20540;-70
2021/05/13 07:32:20;;;;;;;;;;;;;;;17.13;68.81;96473.10;1729440;80;20549;-67
2021/05/13 07:34:46;;;;;;;;;;;;;;;17.18;68.72;96465.50;1729376;80;20662;-67
2021/05/13 07:37:44;;;;;;;;;;;;;;;17.26;68.48;96459.38;1729985;80;21647;-68
2021/05/13 07:40:15;;;;;;;;;;;;;;;17.28;68.24;96457.20;1734860;80;20631;-70
2021/05/13 07:42:42;;;;;;;;;;;;;;;17.26;67.97;96456.73;1726929;80;20557;-65
2021/05/13 07:45:09;;;;;;;;;;;;;;;17.25;67.97;96458.37;1730682;80;20220;-69
2021/05/13 07:47:40;;;;;;;;;;;;;;;17.26;68.62;96458.60;1722795;80;20563;-66
2021/05/13 07:50:12;;;;;;;;;;;;;;;17.31;68.62;96458.42;1727337;82;21618;-69
2021/05/13 07:52:39;;;;;;;;;;;;;;;17.38;68.78;96463.47;1729277;80;20627;-68
2021/05/13 07:55:07;;;;;;;;;;;;;;;17.40;68.56;96457.29;1726193;82;20558;-69
2021/05/13 07:57:34;;;;;;;;;;;;;;;17.42;69.25;96459.64;1724493;80;20737;-64
2021/05/13 08:00:03;;;;;;;;;;;;;;;17.41;69.93;96458.86;1729291;80;20574;-69
2021/05/13 08:02:32;;;;;;;;;;;;;;;17.44;69.32;96458.20;1726868;80;21633;-71
2021/05/13 08:04:59;;;;;;;;;;;;;;;17.49;69.11;96454.05;1730595;81;20187;-70
2021/05/13 08:07:26;;;;;;;;;;;;;;;17.49;69.17;96453.27;1740234;79;20567;-66
2021/05/13 08:09:53;;;;;;;;;;;;;;;17.44;69.45;96453.44;1736021;79;20608;-70
2021/05/13 08:12:19;;;;;;;;;;;;;;;17.41;70.22;96452.22;1734345;81;20419;-67
2021/05/13 08:14:46;;;;;;;;;;;;;;;17.39;70.14;96454.95;1728344;81;21582;-68
2021/05/13 08:17:13;;;;;;;;;;;;;;;17.33;71.08;96449.05;1735567;81;20605;-67
2021/05/13 08:19:40;;;;;;;;;;;;;;;17.25;71.57;96456.49;1732430;81;20668;-67
2021/05/13 08:22:07;;;;;;;;;;;;;;;17.17;72.29;96450.12;1736440;80;20600;-66
2021/05/13 08:24:34;;;;;;;;;;;;;;;17.09;72.86;96453.58;1739021;81;20612;-67
2021/05/13 08:27:02;;;;;;;;;;;;;;;17.06;74.02;96458.76;1733127;81;21636;-65
2021/05/13 08:29:30;;;;;;;;;;;;;;;17.01;75.61;96452.27;1731857;81;20598;-69
2021/05/13 08:31:57;;;;;;;;;;;;;;;16.95;76.48;96456.20;1733771;81;20551;-69
2021/05/13 08:34:24;;;;;;;;;;;;;;;16.89;77.07;96456.92;1731836;81;20294;-66
2021/05/13 08:36:51;;;;;;;;;;;;;;;16.80;77.09;96458.81;1731006;81;20643;-66
2021/05/13 08:39:18;;;;;;;;;;;;;;;16.78;78.42;96454.39;1729978;80;20640;-65
2021/05/13 08:41:47;;;;;;;;;;;;;;;16.80;79.16;96460.14;1739210;79;20655;-69
2021/05/13 08:44:15;;;;;;;;;;;;;;;16.86;80.58;96467.41;1737765;79;20618;-64
2021/05/13 08:46:43;;;;;;;;;;;;;;;16.88;81.04;96466.52;1738409;79;20701;-64
2021/05/13 08:49:10;;;;;;;;;;;;;;;16.87;79.86;96461.76;1732676;81;20628;-63
2021/05/13 08:51:37;;;;;;;;;;;;;;;16.85;79.94;96465.84;1730465;81;20685;-69
2021/05/13 08:54:04;;;;;;;;;;;;;;;16.83;80.30;96465.37;1729143;81;20529;-65
2021/05/13 08:56:31;;;;;;;;;;;;;;;16.81;81.19;96456.94;1747134;81;20237;-69
2021/05/13 08:59:08;;;;;;;;;;;;;;;16.86;82.34;96456.22;1736229;81;20574;-70
2021/05/13 09:01:33;;;;;;;;;;;;;;;16.98;83.40;96459.02;1739059;80;20732;-67
2021/05/13 09:04:01;;;;;;;;;;;;;;;17.11;82.86;96454.05;1740631;80;21615;-69
2021/05/13 09:06:40;;;;;;;;;;;;;;;17.24;80.37;96458.13;1734749;81;20544;-70
2021/05/13 09:09:11;;;;;;;;;;;;;;;17.33;79.29;96460.22;1732618;80;20620;-68
2021/05/13 09:11:53;;;;;;;;;;;;;;;17.40;78.36;96455.19;1730160;79;20801;-69
2021/05/13 09:14:31;;;;;;;;;;;;;;;17.43;79.25;96452.66;1740608;81;20617;-69
2021/05/13 09:16:59;;;;;;;;;;;;;;;17.45;78.46;96452.34;1725803;80;22078;-66
2021/05/13 09:19:32;;;;;;;;;;;;;;;17.47;79.29;96454.13;1737780;81;20556;-69
2021/05/13 09:22:02;;;;;;;;;;;;;;;17.49;79.09;96455.93;1741689;81;20782;-69
2021/05/13 09:24:52;;;;;;;;;;;;;;;17.51;78.73;96451.05;1740888;81;20248;-68
2021/05/13 09:27:28;;;;;;;;;;;;;;;17.53;78.14;96461.60;1737011;80;20351;-70
2021/05/13 09:30:18;;;;;;;;;;;;;;;17.52;78.39;96464.56;1738425;81;21583;-68
2021/05/13 09:32:47;;;;;;;;;;;;;;;17.46;78.69;96455.23;1738645;79;20626;-69
2021/05/13 09:35:16;;;;;;;;;;;;;;;17.37;78.67;96457.14;1735013;79;20691;-67
2021/05/13 09:37:51;;;;;;;;;;;;;;;17.30;79.55;96453.66;1737869;81;20657;-66
2021/05/13 09:40:39;;;;;;;;;;;;;;;17.22;79.54;96455.79;1736191;79;20829;-67
2021/05/13 09:43:21;;;;;;;;;;;;;;;17.11;80.05;96463.34;1736752;81;21681;-68
2021/05/13 09:45:49;;;;;;;;;;;;;;;17.08;80.82;96457.87;1737694;79;20643;-68
2021/05/13 09:48:35;;;;;;;;;;;;;;;17.08;81.44;96457.33;1738151;79;20596;-67
2021/05/13 09:51:22;;;;;;;;;;;;;;;17.08;81.92;96456.00;1734808;81;20152;-62
2021/05/13 09:54:09;;;;;;;;;;;;;;;17.11;81.52;96451.39;1734799;80;20678;-67
2021/05/13 09:56:38;;;;;;;;;;;;;;;17.11;82.41;96452.72;1735666;81;21591;-65
2021/05/13 09:59:34;;;;;;;;;;;;;;;17.14;82.66;96456.63;1729287;80;20154;-66
2021/05/13 10:02:04;;;;;;;;;;;;;;;17.17;82.29;96457.30;1735359;81;20254;-67
2021/05/13 10:04:31;;;;;;;;;;;;;;;17.27;83.09;96456.97;1736949;81;20291;-69
2021/05/13 10:06:58;;;;;;;;;;;;;;;17.38;82.76;96456.05;1742132;81;20584;-66
2021/05/13 10:09:25;;;;;;;;;;;;;;;17.46;82.75;96458.66;1737157;81;21622;-71
2021/05/13 10:11:56;;;;;;;;;;;;;;;17.52;82.87;96464.02;1736818;81;20782;-66
2021/05/13 10:14:25;;;;;;;;;;;;;;;17.55;82.41;96457.30;1735121;81;20603;-66
2021/05/13 10:16:54;;;;;;;;;;;;;;;17.58;81.34;96463.86;1735654;79;20654;-67
2021/05/13 10:19:28;;;;;;;;;;;;;;;17.59;81.50;96463.52;1734381;81;20644;-69
2021/05/13 10:21:55;;;;;;;;;;;;;;;17.64;80.63;96459.40;1742483;81;21656;-68
2021/05/13 10:24:22;;;;;;;;;;;;;;;17.72;79.29;96464.44;1743409;81;20225;-69
2021/05/13 10:26:50;;;;;;;;;;;;;;;17.73;78.26;96456.13;1736374;79;20589;-68
2021/05/13 10:29:28;;;;;;;;;;;;;;;17.75;78.39;96461.12;1736520;81;20575;-66
2021/05/13 10:32:11;;;;;;;;;;;;;;;17.81;78.70;96465.14;1733022;81;20616;-64
2021/05/13 10:34:48;;;;;;;;;;;;;;;17.87;78.71;96463.86;1734171;81;21776;-65
2021/05/13 10:37:39;;;;;;;;;;;;;;;17.86;78.10;96461.77;1733366;81;20637;-66
2021/05/13 10:40:29;;;;;;;;;;;;;;;17.87;78.64;96457.98;1733603;81;20315;-66
2021/05/13 10:42:59;;;;;;;;;;;;;;;17.90;79.26;96456.58;1732858;81;20831;-70
2021/05/13 10:45:32;;;;;;;;;;;;;;;17.95;78.57;96457.16;1733499;81;20644;-71
2021/05/13 10:48:17;;;;;;;;;;;;;;;18.02;77.80;96459.30;1737926;79;20805;-73
2021/05/13 10:50:53;;;;;;;;;;;;;;;18.07;77.03;96458.34;1740226;81;20184;-70
2021/05/13 10:53:57;;;;;;;;;;;;;;;18.13;75.66;96461.03;1738298;81;20523;-70
2021/05/13 10:56:14;;;;;;;;;;;;;;;18.20;75.72;96455.98;1724706;81;20613;-69
2021/05/13 10:59:10;;;;;;;;;;;;;;;18.31;75.84;96465.11;1733899;79;20666;-68
2021/05/13 11:01:53;;;;;;;;;;;;;;;18.43;76.17;96459.09;1736608;81;21736;-69
2021/05/13 11:04:28;;;;;;;;;;;;;;;18.54;74.11;96460.23;1738011;81;20218;-69
2021/05/13 11:07:00;;;;;;;;;;;;;;;18.64;73.15;96464.63;1733294;81;20623;-69
2021/05/13 11:09:45;;;;;;;;;;;;;;;18.70;71.83;96463.87;1728388;81;20627;-67
2021/05/13 11:12:14;;;;;;;;;;;;;;;18.70;70.89;96459.33;1728004;81;20346;-72
2021/05/13 11:20:30;;;;;;;;;;;;;;;18.82;69.17;96465.78;1727581;81;20479;-69
2021/05/13 11:23:00;;;;;;;;;;;;;;;18.88;68.23;96459.14;1729840;81;20685;-66
2021/05/13 11:25:37;;;;;;;;;;;;;;;18.97;68.66;96453.17;1729612;81;20532;-69
2021/05/13 11:28:31;;;;;;;;;;;;;;;19.04;67.56;96456.08;1731527;80;21600;-66
2021/05/13 11:31:07;;;;;;;;;;;;;;;19.13;66.76;96452.77;1732276;81;20360;-63
2021/05/13 11:33:54;;;;;;;;;;;;;;;19.31;67.14;96455.44;1735165;81;20310;-68
2021/05/13 11:36:30;;;;;;;;;;;;;;;19.49;66.72;96449.38;1734117;81;20556;-68
2021/05/13 11:39:00;;;;;;;;;;;;;;;19.61;65.55;96445.92;1728991;81;20394;-65
2021/05/13 11:41:27;;;;;;;;;;;;;;;19.66;64.72;96446.50;1731113;81;21647;-67
2021/05/13 11:43:54;;;;;;;;;;;;;;;19.66;64.14;96444.39;1730837;81;21062;-67
2021/05/13 11:46:22;;;;;;;;;;;;;;;19.74;65.33;96443.47;1732559;80;20287;-70
2021/05/13 11:48:50;;;;;;;;;;;;;;;19.83;64.97;96444.13;1731576;80;20615;-68
2021/05/13 11:51:19;;;;;;;;;;;;;;;19.92;63.72;96444.02;1729292;81;20769;-68
2021/05/13 11:53:46;;;;;;;;;;;;;;;20.01;63.38;96443.33;1727399;81;21674;-71
2021/05/13 11:56:14;;;;;;;;;;;;;;;20.15;62.22;96438.41;1731843;80;20870;-73
2021/05/13 11:58:48;;;;;;;;;;;;;;;20.27;60.02;96437.03;1732188;81;20548;-68
2021/05/13 12:01:30;;;;;;;;;;;;;;;20.34;57.07;96435.92;1732050;81;20583;-69
2021/05/13 12:03:59;;;;;;;;;;;;;;;20.35;56.08;96437.48;1731167;80;20370;-67
2021/05/13 12:06:27;;;;;;;;;;;;;;;20.40;57.97;96432.45;1732043;81;21681;-66
2021/05/13 12:08:54;;;;;;;;;;;;;;;20.48;57.04;96435.53;1730215;81;20558;-63
2021/05/13 12:11:23;;;;;;;;;;;;;;;20.54;56.82;96437.62;1730282;81;20771;-70
2021/05/13 12:13:55;;;;;;;;;;;;;;;20.61;56.61;96440.48;1728642;80;20281;-70
2021/05/13 12:16:24;;;;;;;;;;;;;;;20.60;56.12;96433.58;1729581;81;20542;-70
2021/05/13 12:19:05;;;;;;;;;;;;;;;20.62;55.38;96426.57;1730246;80;22169;-68
2021/05/13 12:21:34;;;;;;;;;;;;;;;20.62;54.52;96421.23;1730665;81;20211;-65
2021/05/13 12:24:05;;;;;;;;;;;;;;;20.55;54.75;96421.05;1733742;81;20523;-67
2021/05/13 12:26:38;;;;;;;;;;;;;;;20.51;54.86;96420.97;1727553;81;20362;-68
2021/05/13 12:29:05;;;;;;;;;;;;;;;20.51;55.41;96425.52;1730873;80;20667;-70
2021/05/13 12:31:35;;;;;;;;;;;;;;;20.52;55.26;96423.08;1730789;80;21629;-71
2021/05/13 12:34:04;;;;;;;;;;;;;;;20.53;55.95;96423.30;1727672;81;20506;-68
2021/05/13 12:36:33;;;;;;;;;;;;;;;20.56;56.45;96418.04;1727140;81;20580;-69
2021/05/13 12:39:00;;;;;;;;;;;;;;;20.60;56.33;96419.48;1731047;80;20312;-71
2021/05/13 12:41:27;;;;;;;;;;;;;;;20.58;55.38;96416.38;1731248;81;20717;-70
2021/05/13 12:44:10;;;;;;;;;;;;;;;20.54;55.30;96418.16;1726037;80;21578;-70
2021/05/13 12:46:48;;;;;;;;;;;;;;;20.53;55.20;96416.04;1730605;81;20701;-69
2021/05/13 12:49:25;;;;;;;;;;;;;;;20.52;54.71;96413.18;1720096;81;20475;-72
2021/05/13 12:51:59;;;;;;;;;;;;;;;20.52;54.62;96410.52;1728601;81;20540;-68
2021/05/13 12:54:26;;;;;;;;;;;;;;;20.51;54.63;96408.17;1731759;80;20592;-70
2021/05/13 12:57:10;;;;;;;;;;;;;;;20.57;54.66;96413.48;1732913;81;21579;-67
2021/05/13 12:59:37;;;;;;;;;;;;;;;20.63;55.75;96408.11;1731841;81;20507;-66
2021/05/13 13:02:04;;;;;;;;;;;;;;;20.67;56.39;96408.99;1732692;80;20352;-68
2021/05/13 13:04:47;;;;;;;;;;;;;;;20.71;54.95;96405.84;1734325;81;20515;-67
2021/05/13 13:07:15;;;;;;;;;;;;;;;20.80;55.41;96402.46;1735720;81;20587;-69
2021/05/13 13:09:42;;;;;;;;;;;;;;;20.91;55.14;96401.38;1734447;80;21681;-71
2021/05/13 13:12:15;;;;;;;;;;;;;;;21.04;54.83;96402.28;1730960;81;20672;-70
2021/05/13 13:14:48;;;;;;;;;;;;;;;21.15;53.29;96399.89;1737962;81;20503;-67
2021/05/13 13:17:26;;;;;;;;;;;;;;;21.15;53.42;96395.87;1732369;81;20567;-66
2021/05/13 13:20:04;;;;;;;;;;;;;;;21.14;54.31;96388.98;1732084;81;20274;-68
2021/05/13 13:22:31;;;;;;;;;;;;;;;21.20;53.89;96394.86;1732582;81;21123;-64
2021/05/13 13:25:07;;;;;;;;;;;;;;;21.23;53.01;96390.95;1730403;80;20563;-67
2021/05/13 13:27:37;;;;;;;;;;;;;;;21.24;53.25;96386.39;1728055;81;20314;-68
2021/05/13 13:30:12;;;;;;;;;;;;;;;21.26;54.16;96391.58;1730595;81;20519;-65
2021/05/13 13:32:41;;;;;;;;;;;;;;;21.30;54.67;96387.67;1729107;81;20536;-68
2021/05/13 13:35:11;;;;;;;;;;;;;;;21.36;54.90;96385.72;1729153;80;21684;-70
2021/05/13 13:37:41;;;;;;;;;;;;;;;21.41;54.74;96391.34;1727385;81;20564;-66
2021/05/13 13:40:09;;;;;;;;;;;;;;;21.45;55.29;96390.11;1729665;81;20309;-68
2021/05/13 13:42:37;;;;;;;;;;;;;;;21.40;55.35;96393.24;1730160;81;20666;-66
2021/05/13 13:45:05;;;;;;;;;;;;;;;21.31;55.89;96394.01;1729019;81;20671;-68
2021/05/13 13:47:32;;;;;;;;;;;;;;;21.22;56.69;96395.30;1732377;80;21635;-70
2021/05/13 13:49:59;;;;;;;;;;;;;;;21.11;56.72;96401.68;1730744;80;20625;-68
2021/05/13 13:52:26;;;;;;;;;;;;;;;21.00;56.85;96402.77;1730570;81;20594;-67
2021/05/13 13:54:53;;;;;;;;;;;;;;;20.91;56.91;96401.38;1737343;81;20273;-65
2021/05/13 13:57:20;;;;;;;;;;;;;;;20.79;57.12;96398.23;1734015;81;20366;-65
2021/05/13 13:59:46;;;;;;;;;;;;;;;20.68;57.97;96395.84;1739116;81;21611;-67
2021/05/13 14:02:13;;;;;;;;;;;;;;;20.64;58.17;96401.09;1735374;81;20601;-67
2021/05/13 14:04:40;;;;;;;;;;;;;;;20.63;58.31;96402.21;1727260;81;20600;-66
2021/05/13 14:07:07;;;;;;;;;;;;;;;20.59;58.69;96401.91;1736783;79;20659;-64
